Weather at Rudal River Airport

Public forecast

Using degrees Celsius for public forecast. Weather courtesy of forecast.io.

Closest aviation weather report (METAR) to Rudal River Airport

Closest report is Port Hedland International Airport, 236.3 nm (437.7 km) WNW.

2024/05/18 22:30 (retrieved 39 minutes ago)

YPPD 182230Z AUTO 14010KT 9999 // NCD 22/02 Q1018 RF000/0000

Closest aviation forecast (TAF) to Rudal River Airport

Closest forecast is Port Hedland International Airport, 236.3 nm (437.7 km) WNW.

2024/05/18 18:36 (retrieved 5 hours ago)

TAF YPPD 181702Z 1818/1918 12012KT CAVOK FM190000 10020G30KT CAVOK FM190400 10017KT CAVOK FM190900 12012KT CAVOK